createdAt,value
2018-03-11T00:00:28.292Z,1000.56
2018-03-11T00:01:37.398Z,1000.55
2018-03-11T00:02:46.234Z,1000.52
2018-03-11T00:03:55.070Z,1000.55
2018-03-11T00:05:03.903Z,1000.53
2018-03-11T00:06:12.739Z,1000.54
2018-03-11T00:07:21.576Z,1000.53
2018-03-11T00:08:30.412Z,1000.5
2018-03-11T00:09:39.244Z,1000.49
2018-03-11T00:10:48.078Z,1000.53
2018-03-11T00:11:57.192Z,1000.54
2018-03-11T00:13:06.025Z,1000.53
2018-03-11T00:14:14.856Z,1000.5
2018-03-11T00:15:23.690Z,1000.51
2018-03-11T00:16:32.524Z,1000.53
2018-03-11T00:17:41.640Z,1000.48
2018-03-11T00:18:50.476Z,1000.54
2018-03-11T00:19:59.311Z,1000.51
2018-03-11T00:21:08.345Z,1000.48
2018-03-11T00:22:17.178Z,1000.51
2018-03-11T00:23:26.013Z,1000.49
2018-03-11T00:24:34.845Z,1000.45
2018-03-11T00:25:43.683Z,1000.47
2018-03-11T00:26:52.517Z,1000.47
2018-03-11T00:28:01.352Z,1000.46
2018-03-11T00:29:10.192Z,1000.44
2018-03-11T00:30:19.022Z,1000.4
2018-03-11T00:31:27.864Z,1000.44
2018-03-11T00:32:36.982Z,1000.43
2018-03-11T00:33:45.818Z,1000.4
2018-03-11T00:34:54.652Z,1000.39
2018-03-11T00:36:03.487Z,1000.4
2018-03-11T00:37:12.597Z,1000.38
2018-03-11T00:38:21.757Z,1000.37
2018-03-11T00:39:30.594Z,1000.35
2018-03-11T00:40:39.428Z,1000.33
2018-03-11T00:41:48.261Z,1000.33
2018-03-11T00:42:57.373Z,1000.3
2018-03-11T00:44:06.486Z,1000.34
2018-03-11T00:45:15.321Z,1000.33
2018-03-11T00:46:24.157Z,1000.34
2018-03-11T00:47:32.993Z,1000.31
2018-03-11T00:48:42.105Z,1000.31
2018-03-11T00:49:50.937Z,1000.3
2018-03-11T00:50:59.773Z,1000.33
2018-03-11T00:52:08.609Z,1000.33
2018-03-11T00:53:17.444Z,1000.32
2018-03-11T00:54:26.279Z,1000.3
2018-03-11T00:55:35.264Z,1000.29
2018-03-11T00:56:44.100Z,1000.35
2018-03-11T00:57:52.934Z,1000.35
2018-03-11T00:59:01.772Z,1000.32
2018-03-11T01:00:10.889Z,1000.32
2018-03-11T01:01:19.724Z,1000.34
2018-03-11T01:02:28.561Z,1000.33
2018-03-11T01:03:37.672Z,1000.31
2018-03-11T01:04:46.782Z,1000.29
2018-03-11T01:05:55.616Z,1000.27
2018-03-11T01:07:04.449Z,1000.24
2018-03-11T01:08:13.284Z,1000.28
2018-03-11T01:09:22.118Z,1000.23
2018-03-11T01:10:31.233Z,1000.23
2018-03-11T01:11:40.068Z,1000.18
2018-03-11T01:12:48.903Z,1000.19
2018-03-11T01:13:57.742Z,1000.17
2018-03-11T01:15:06.579Z,1000.18
2018-03-11T01:16:15.407Z,1000.13
2018-03-11T01:17:24.248Z,1000.11
2018-03-11T01:18:33.073Z,1000.11
2018-03-11T01:19:41.908Z,1000.13
2018-03-11T01:20:50.742Z,1000.12
2018-03-11T01:21:59.574Z,1000.13
2018-03-11T01:23:08.408Z,1000.13
2018-03-11T01:24:17.247Z,1000.09
2018-03-11T01:25:26.075Z,1000.08
2018-03-11T01:26:34.910Z,1000.09
2018-03-11T01:27:43.744Z,1000.11
2018-03-11T01:28:53.137Z,1000.09
2018-03-11T01:30:01.970Z,1000.08
2018-03-11T01:31:10.803Z,1000.1
2018-03-11T01:32:19.637Z,1000.09
2018-03-11T01:33:28.472Z,1000.09
2018-03-11T01:34:37.305Z,1000.06
2018-03-11T01:35:46.139Z,1000.05
2018-03-11T01:36:54.973Z,1000
2018-03-11T01:38:03.805Z,1000.07
2018-03-11T01:39:12.641Z,1000.04
2018-03-11T01:40:21.755Z,999.99
2018-03-11T01:41:30.863Z,1000
2018-03-11T01:42:39.699Z,1000.01
2018-03-11T01:43:48.533Z,999.99
2018-03-11T01:44:57.365Z,999.99
2018-03-11T01:46:06.203Z,1000
2018-03-11T01:47:15.315Z,999.96
2018-03-11T01:48:24.149Z,999.99
2018-03-11T01:49:32.987Z,999.97
2018-03-11T01:50:41.828Z,1000.01
2018-03-11T01:51:50.662Z,999.96
2018-03-11T01:52:59.495Z,999.95
2018-03-11T01:54:08.331Z,999.98
2018-03-11T01:55:17.169Z,999.96
2018-03-11T01:56:26.001Z,999.99
2018-03-11T01:57:35.111Z,999.99
2018-03-11T01:58:43.946Z,999.94
2018-03-11T01:59:52.783Z,999.98
2018-03-11T02:01:01.893Z,999.97
2018-03-11T02:02:10.728Z,999.93
2018-03-11T02:03:19.565Z,999.89
2018-03-11T02:04:28.399Z,999.86
2018-03-11T02:05:37.233Z,999.85
2018-03-11T02:06:46.116Z,999.84
2018-03-11T02:07:54.901Z,999.88
2018-03-11T02:09:03.735Z,999.86
2018-03-11T02:10:12.728Z,999.89
2018-03-11T02:11:21.563Z,999.84
2018-03-11T02:12:30.399Z,999.85
2018-03-11T02:13:39.231Z,999.84
2018-03-11T02:14:48.069Z,999.81
2018-03-11T02:15:56.901Z,999.79
2018-03-11T02:17:05.736Z,999.77
2018-03-11T02:18:14.568Z,999.77
2018-03-11T02:19:23.405Z,999.71
2018-03-11T02:20:32.238Z,999.76
2018-03-11T02:21:41.072Z,999.75
2018-03-11T02:22:49.907Z,999.75
2018-03-11T02:23:58.740Z,999.77
2018-03-11T02:25:08.133Z,999.71
2018-03-11T02:26:16.968Z,999.78
2018-03-11T02:27:25.803Z,999.71
2018-03-11T02:28:34.638Z,999.76
2018-03-11T02:29:44.022Z,999.72
2018-03-11T02:30:52.859Z,999.71
2018-03-11T02:32:01.694Z,999.69
2018-03-11T02:33:10.526Z,999.68
2018-03-11T02:34:19.362Z,999.68
2018-03-11T02:35:28.195Z,999.66
2018-03-11T02:36:37.030Z,999.68
2018-03-11T02:37:45.876Z,999.69
2018-03-11T02:38:54.986Z,999.68
2018-03-11T02:40:03.819Z,999.67
2018-03-11T02:41:12.652Z,999.65
2018-03-11T02:42:21.761Z,999.63
2018-03-11T02:43:30.602Z,999.63
2018-03-11T02:44:39.433Z,999.64
2018-03-11T02:45:48.270Z,999.62
2018-03-11T02:46:57.397Z,999.63
2018-03-11T02:48:06.231Z,999.6
2018-03-11T02:49:15.068Z,999.66
2018-03-11T02:50:23.908Z,999.65
2018-03-11T02:51:32.738Z,999.58
2018-03-11T02:52:41.849Z,999.64
2018-03-11T02:53:50.692Z,999.59
2018-03-11T02:54:59.525Z,999.61
2018-03-11T02:56:08.360Z,999.56
2018-03-11T02:57:17.192Z,999.6
2018-03-11T02:58:26.030Z,999.56
2018-03-11T02:59:34.860Z,999.62
2018-03-11T03:00:43.696Z,999.62
2018-03-11T03:01:52.532Z,999.58
2018-03-11T03:03:01.368Z,999.57
2018-03-11T03:04:10.204Z,999.58
2018-03-11T03:05:19.038Z,999.53
2018-03-11T03:06:28.149Z,999.46
2018-03-11T03:07:36.982Z,999.46
2018-03-11T03:08:46.095Z,999.41
2018-03-11T03:09:54.929Z,999.45
2018-03-11T03:11:03.764Z,999.44
2018-03-11T03:12:12.597Z,999.43
2018-03-11T03:13:21.483Z,999.4
2018-03-11T03:14:30.319Z,999.39
2018-03-11T03:15:39.425Z,999.33
2018-03-11T03:16:48.257Z,999.35
2018-03-11T03:17:57.090Z,999.36
2018-03-11T03:19:05.926Z,999.29
2018-03-11T03:20:14.759Z,999.29
2018-03-11T03:21:23.598Z,999.31
2018-03-11T03:22:32.425Z,999.28
2018-03-11T03:23:41.305Z,999.28
2018-03-11T03:24:50.137Z,999.25
2018-03-11T03:25:58.971Z,999.25
2018-03-11T03:27:07.808Z,999.25
2018-03-11T03:28:16.915Z,999.23
2018-03-11T03:29:25.746Z,999.2
2018-03-11T03:30:34.631Z,999.19
2018-03-11T03:31:43.473Z,999.2
2018-03-11T03:32:52.306Z,999.18
2018-03-11T03:34:01.422Z,999.18
2018-03-11T03:35:10.259Z,999.16
2018-03-11T03:36:19.090Z,999.2
2018-03-11T03:37:27.925Z,999.15
2018-03-11T03:38:36.760Z,999.12
2018-03-11T03:39:45.594Z,999.12
2018-03-11T03:40:54.432Z,999.1
2018-03-11T03:42:03.268Z,999.06
2018-03-11T03:43:12.102Z,999.03
2018-03-11T03:44:20.935Z,999.05
2018-03-11T03:45:30.045Z,999.04
2018-03-11T03:46:38.876Z,999.02
2018-03-11T03:47:47.714Z,999.01
2018-03-11T03:48:56.543Z,999
2018-03-11T03:50:05.377Z,998.98
2018-03-11T03:51:14.214Z,999
2018-03-11T03:52:23.043Z,999
2018-03-11T03:53:31.880Z,998.98
2018-03-11T03:54:40.710Z,998.97
2018-03-11T03:55:49.541Z,998.97
2018-03-11T03:56:58.375Z,998.94
2018-03-11T03:58:07.489Z,998.96
2018-03-11T03:59:16.323Z,998.96
2018-03-11T04:00:25.155Z,998.97
2018-03-11T04:01:33.993Z,998.92
2018-03-11T04:02:42.830Z,998.91
2018-03-11T04:03:51.665Z,998.91
2018-03-11T04:05:00.549Z,998.9
2018-03-11T04:06:09.387Z,998.91
2018-03-11T04:07:18.215Z,998.92
2018-03-11T04:08:27.324Z,998.91
2018-03-11T04:09:36.157Z,998.92
2018-03-11T04:10:44.991Z,998.94
2018-03-11T04:11:53.823Z,998.96
2018-03-11T04:13:02.656Z,998.95
2018-03-11T04:14:11.491Z,998.94
2018-03-11T04:15:20.324Z,998.93
2018-03-11T04:16:29.157Z,998.93
2018-03-11T04:17:37.988Z,998.91
2018-03-11T04:18:46.828Z,998.91
2018-03-11T04:19:55.941Z,998.91
2018-03-11T04:21:04.775Z,998.92
2018-03-11T04:22:13.607Z,998.9
2018-03-11T04:23:22.441Z,998.88
2018-03-11T04:24:31.278Z,998.88
2018-03-11T04:25:40.111Z,998.84
2018-03-11T04:26:48.944Z,998.88
2018-03-11T04:27:57.778Z,998.87
2018-03-11T04:29:06.620Z,998.83
2018-03-11T04:30:15.447Z,998.82
2018-03-11T04:31:24.281Z,998.84
2018-03-11T04:32:33.113Z,998.83
2018-03-11T04:33:41.947Z,998.77
2018-03-11T04:34:50.779Z,998.76
2018-03-11T04:35:59.613Z,998.74
2018-03-11T04:37:08.449Z,998.75
2018-03-11T04:38:17.291Z,998.71
2018-03-11T04:39:26.115Z,998.71
2018-03-11T04:40:34.948Z,998.69
2018-03-11T04:41:43.781Z,998.72
2018-03-11T04:42:52.617Z,998.7
2018-03-11T04:44:01.730Z,998.68
2018-03-11T04:45:10.837Z,998.69
2018-03-11T04:46:19.671Z,998.68
2018-03-11T04:47:28.505Z,998.68
2018-03-11T04:48:37.337Z,998.67
2018-03-11T04:49:46.171Z,998.67
2018-03-11T04:50:55.004Z,998.64
2018-03-11T04:52:04.116Z,998.65
2018-03-11T04:53:12.949Z,998.66
2018-03-11T04:54:22.063Z,998.62
2018-03-11T04:55:30.897Z,998.61
2018-03-11T04:56:39.880Z,998.6
2018-03-11T04:57:49.003Z,998.61
2018-03-11T04:58:57.837Z,998.67
2018-03-11T05:00:06.683Z,998.64
2018-03-11T05:01:15.513Z,998.71
2018-03-11T05:02:24.344Z,998.71
2018-03-11T05:03:33.180Z,998.67
2018-03-11T05:04:42.012Z,998.67
2018-03-11T05:05:50.850Z,998.64
2018-03-11T05:06:59.678Z,998.67
2018-03-11T05:08:08.511Z,998.67
2018-03-11T05:09:17.381Z,998.71
2018-03-11T05:10:26.517Z,998.7
2018-03-11T05:11:35.352Z,998.7
2018-03-11T05:12:44.188Z,998.7
2018-03-11T05:13:53.070Z,998.74
2018-03-11T05:15:01.903Z,998.67
2018-03-11T05:16:10.737Z,998.67
2018-03-11T05:17:19.848Z,998.65
2018-03-11T05:18:28.680Z,998.63
2018-03-11T05:19:37.513Z,998.61
2018-03-11T05:20:46.345Z,998.62
2018-03-11T05:21:55.180Z,998.63
2018-03-11T05:23:04.290Z,998.59
2018-03-11T05:24:13.451Z,998.63
2018-03-11T05:25:22.233Z,998.65
2018-03-11T05:26:31.342Z,998.66
2018-03-11T05:27:40.177Z,998.7
2018-03-11T05:28:49.008Z,998.73
2018-03-11T05:29:57.843Z,998.69
2018-03-11T05:31:07.004Z,998.65
2018-03-11T05:32:15.837Z,998.63
2018-03-11T05:33:24.667Z,998.62
2018-03-11T05:34:33.500Z,998.63
2018-03-11T05:35:42.334Z,998.65
2018-03-11T05:36:51.447Z,998.62
2018-03-11T05:38:00.279Z,998.56
2018-03-11T05:39:09.398Z,998.57
2018-03-11T05:40:18.230Z,998.61
2018-03-11T05:41:27.065Z,998.57
2018-03-11T05:42:35.898Z,998.53
2018-03-11T05:43:45.278Z,998.55
2018-03-11T05:44:54.111Z,998.58
2018-03-11T05:46:02.942Z,998.54
2018-03-11T05:47:11.776Z,998.52
2018-03-11T05:48:21.033Z,998.53
2018-03-11T05:49:29.867Z,998.48
2018-03-11T05:50:38.700Z,998.55
2018-03-11T05:51:48.086Z,998.56
2018-03-11T05:52:57.204Z,998.58
2018-03-11T05:54:06.189Z,998.48
2018-03-11T05:55:15.299Z,998.49
2018-03-11T05:56:24.130Z,998.48
2018-03-11T05:57:32.966Z,998.48
2018-03-11T05:58:41.801Z,998.5
2018-03-11T05:59:50.635Z,998.53
2018-03-11T06:00:59.468Z,998.54
2018-03-11T06:02:08.304Z,998.54
2018-03-11T06:03:17.424Z,998.58
2018-03-11T06:04:26.256Z,998.55
2018-03-11T06:05:35.421Z,998.58
2018-03-11T06:06:44.254Z,998.53
2018-03-11T06:07:53.088Z,998.54
2018-03-11T06:09:01.921Z,998.54
2018-03-11T06:10:10.752Z,998.52
2018-03-11T06:11:19.584Z,998.52
2018-03-11T06:12:28.419Z,998.57
2018-03-11T06:13:37.251Z,998.56
2018-03-11T06:14:46.085Z,998.51
2018-03-11T06:15:54.918Z,998.48
2018-03-11T06:17:03.759Z,998.46
2018-03-11T06:18:12.870Z,998.49
2018-03-11T06:19:21.702Z,998.49
2018-03-11T06:20:30.536Z,998.47
2018-03-11T06:21:39.369Z,998.45
2018-03-11T06:22:48.354Z,998.46
2018-03-11T06:23:57.187Z,998.44
2018-03-11T06:25:06.020Z,998.44
2018-03-11T06:26:14.853Z,998.43
2018-03-11T06:27:23.686Z,998.38
2018-03-11T06:28:32.521Z,998.37
2018-03-11T06:29:41.639Z,998.34
2018-03-11T06:30:50.476Z,998.37
2018-03-11T06:31:59.309Z,998.33
2018-03-11T06:33:08.142Z,998.36
2018-03-11T06:34:17.259Z,998.36
2018-03-11T06:35:26.092Z,998.26
2018-03-11T06:36:34.923Z,998.28
2018-03-11T06:37:44.039Z,998.3
2018-03-11T06:38:52.898Z,998.31
2018-03-11T06:40:01.757Z,998.28
2018-03-11T06:41:10.599Z,998.3
2018-03-11T06:42:19.431Z,998.25
2018-03-11T06:43:28.267Z,998.25
2018-03-11T06:44:37.097Z,998.22
2018-03-11T06:45:45.931Z,998.21
2018-03-11T06:46:55.045Z,998.2
2018-03-11T06:48:04.156Z,998.19
2018-03-11T06:49:12.988Z,998.17
2018-03-11T06:50:21.824Z,998.23
2018-03-11T06:51:30.659Z,998.21
2018-03-11T06:52:39.491Z,998.25
2018-03-11T06:53:48.325Z,998.3
2018-03-11T06:54:57.160Z,998.28
2018-03-11T06:56:05.997Z,998.3
2018-03-11T06:57:14.827Z,998.29
2018-03-11T06:58:23.661Z,998.32
2018-03-11T06:59:32.494Z,998.32
2018-03-11T07:00:41.325Z,998.34
2018-03-11T07:01:50.157Z,998.36
2018-03-11T07:02:59.276Z,998.41
2018-03-11T07:04:08.387Z,998.42
2018-03-11T07:05:17.221Z,998.45
2018-03-11T07:06:26.054Z,998.44
2018-03-11T07:07:34.888Z,998.39
2018-03-11T07:08:43.728Z,998.45
2018-03-11T07:09:52.555Z,998.42
2018-03-11T07:11:01.662Z,998.43
2018-03-11T07:12:10.504Z,998.41
2018-03-11T07:13:19.339Z,998.36
2018-03-11T07:14:28.174Z,998.33
2018-03-11T07:15:37.011Z,998.26
2018-03-11T07:16:45.842Z,998.31
2018-03-11T07:17:54.675Z,998.29
2018-03-11T07:19:03.509Z,998.27
2018-03-11T07:20:12.343Z,998.26
2018-03-11T07:21:21.177Z,998.27
2018-03-11T07:22:30.016Z,998.26
2018-03-11T07:23:38.849Z,998.25
2018-03-11T07:24:47.679Z,998.23
2018-03-11T07:25:56.790Z,998.22
2018-03-11T07:27:05.901Z,998.26
2018-03-11T07:28:14.735Z,998.22
2018-03-11T07:29:23.577Z,998.2
2018-03-11T07:30:32.409Z,998.15
2018-03-11T07:31:41.244Z,998.1
2018-03-11T07:32:50.079Z,998.14
2018-03-11T07:33:58.913Z,998.15
2018-03-11T07:35:07.746Z,998.14
2018-03-11T07:36:16.878Z,998.19
2018-03-11T07:37:25.985Z,998.2
2018-03-11T07:38:34.822Z,998.19
2018-03-11T07:39:43.930Z,998.21
2018-03-11T07:40:52.776Z,998.18
2018-03-11T07:42:01.609Z,998.2
2018-03-11T07:43:10.441Z,998.19
2018-03-11T07:44:19.275Z,998.15
2018-03-11T07:45:28.110Z,998.14
2018-03-11T07:46:37.218Z,998.13
2018-03-11T07:47:46.052Z,998.12
2018-03-11T07:48:54.888Z,998.08
2018-03-11T07:50:03.725Z,998.07
2018-03-11T07:51:12.557Z,998.1
2018-03-11T07:52:21.675Z,997.99
2018-03-11T07:53:30.508Z,998.01
2018-03-11T07:54:39.354Z,998.02
2018-03-11T07:55:48.470Z,998.01
2018-03-11T07:56:57.457Z,998.04
2018-03-11T07:58:06.296Z,998.06
2018-03-11T07:59:15.403Z,998.02
2018-03-11T08:00:24.235Z,998
2018-03-11T08:01:33.066Z,998.01
2018-03-11T08:02:42.203Z,997.99
2018-03-11T08:03:51.038Z,997.97
2018-03-11T08:04:59.873Z,997.96
2018-03-11T08:06:08.708Z,997.98
2018-03-11T08:07:17.543Z,997.96
2018-03-11T08:08:26.373Z,997.93
2018-03-11T08:09:35.208Z,997.92
2018-03-11T08:10:44.044Z,997.91
2018-03-11T08:11:52.876Z,997.93
2018-03-11T08:13:01.988Z,997.89
2018-03-11T08:14:10.872Z,997.95
2018-03-11T08:15:19.985Z,997.98
2018-03-11T08:16:28.819Z,997.97
2018-03-11T08:17:37.654Z,998.01
2018-03-11T08:18:46.489Z,997.98
2018-03-11T08:19:55.325Z,997.99
2018-03-11T08:21:04.161Z,997.93
2018-03-11T08:22:12.997Z,997.93
2018-03-11T08:23:21.830Z,997.97
2018-03-11T08:24:30.669Z,997.98
2018-03-11T08:25:39.652Z,997.98
2018-03-11T08:26:48.487Z,997.94
2018-03-11T08:27:57.320Z,997.9
2018-03-11T08:29:06.432Z,997.84
2018-03-11T08:30:15.270Z,997.82
2018-03-11T08:31:24.203Z,997.75
2018-03-11T08:32:33.036Z,997.68
2018-03-11T08:33:41.873Z,997.68
2018-03-11T08:34:50.713Z,997.66
2018-03-11T08:35:59.547Z,997.6
2018-03-11T08:37:08.482Z,997.59
2018-03-11T08:38:17.519Z,997.55
2018-03-11T08:39:26.354Z,997.53
2018-03-11T08:40:35.469Z,997.48
2018-03-11T08:41:44.577Z,997.49
2018-03-11T08:42:53.665Z,997.46
2018-03-11T08:44:02.499Z,997.42
2018-03-11T08:45:11.335Z,997.39
2018-03-11T08:46:20.448Z,997.37
2018-03-11T08:47:29.283Z,997.37
2018-03-11T08:48:38.116Z,997.36
2018-03-11T08:49:47.001Z,997.36
2018-03-11T08:50:55.838Z,997.45
2018-03-11T08:52:04.953Z,997.42
2018-03-11T08:53:13.789Z,997.46
2018-03-11T08:54:22.674Z,997.49
2018-03-11T08:55:31.786Z,997.57
2018-03-11T08:56:40.621Z,997.62
2018-03-11T08:57:49.456Z,997.64
2018-03-11T08:58:58.291Z,997.61
2018-03-11T09:00:07.125Z,997.58
2018-03-11T09:01:15.960Z,997.5
2018-03-11T09:02:24.796Z,997.47
2018-03-11T09:03:34.182Z,997.43
2018-03-11T09:04:43.029Z,997.42
2018-03-11T09:05:52.305Z,997.39
2018-03-11T09:07:01.134Z,997.36
2018-03-11T09:08:09.972Z,997.46
2018-03-11T09:09:18.819Z,997.48
2018-03-11T09:10:27.705Z,997.54
2018-03-11T09:11:36.816Z,997.53
2018-03-11T09:12:45.712Z,997.53
2018-03-11T09:13:54.575Z,997.58
2018-03-11T09:15:03.421Z,997.62
2018-03-11T09:16:12.262Z,997.64
2018-03-11T09:17:21.101Z,997.69
2018-03-11T09:18:29.938Z,997.68
2018-03-11T09:19:38.773Z,997.71
2018-03-11T09:20:47.609Z,997.67
2018-03-11T09:21:56.444Z,997.71
2018-03-11T09:23:05.658Z,997.72
2018-03-11T09:24:14.495Z,997.77
2018-03-11T09:25:23.330Z,997.68
2018-03-11T09:26:32.165Z,997.7
2018-03-11T09:27:41.000Z,997.61
2018-03-11T09:28:50.214Z,997.6
2018-03-11T09:29:59.052Z,997.6
2018-03-11T09:31:07.888Z,997.62
2018-03-11T09:32:16.724Z,997.54
2018-03-11T09:33:25.560Z,997.48
2018-03-11T09:34:34.547Z,997.42
2018-03-11T09:35:43.482Z,997.37
2018-03-11T09:36:52.594Z,997.38
2018-03-11T09:38:01.431Z,997.32
2018-03-11T09:39:10.265Z,997.27
2018-03-11T09:40:19.134Z,997.29
2018-03-11T09:41:28.217Z,997.3
2018-03-11T09:42:37.054Z,997.26
2018-03-11T09:43:46.167Z,997.2
2018-03-11T09:44:55.001Z,997.19
2018-03-11T09:46:03.838Z,997.18
2018-03-11T09:47:12.952Z,997.13
2018-03-11T09:48:22.064Z,997.12
2018-03-11T09:49:30.903Z,997.18
2018-03-11T09:50:39.740Z,997.19
2018-03-11T09:51:48.577Z,997.2
2018-03-11T09:52:57.413Z,997.14
2018-03-11T09:54:06.523Z,997.11
2018-03-11T09:55:15.362Z,997.03
2018-03-11T09:56:24.199Z,997.03
2018-03-11T09:57:33.036Z,996.99
2018-03-11T09:58:41.873Z,996.94
2018-03-11T09:59:50.710Z,996.92
2018-03-11T10:00:59.547Z,996.96
2018-03-11T10:02:08.384Z,997.02
2018-03-11T10:03:17.523Z,996.92
2018-03-11T10:04:26.359Z,996.94
2018-03-11T10:05:35.198Z,996.89
2018-03-11T10:06:44.037Z,996.93
2018-03-11T10:07:52.874Z,996.97
2018-03-11T10:09:02.137Z,996.96
2018-03-11T10:10:10.975Z,996.95
2018-03-11T10:11:19.816Z,996.97
2018-03-11T10:12:28.931Z,996.95
2018-03-11T10:13:37.768Z,997.01
2018-03-11T10:14:47.280Z,996.96
2018-03-11T10:15:56.115Z,997.12
2018-03-11T10:17:04.958Z,997.17
2018-03-11T10:18:13.795Z,997.19
2018-03-11T10:19:22.632Z,997.24
2018-03-11T10:20:31.474Z,997.23
2018-03-11T10:21:40.310Z,997.25
2018-03-11T10:22:49.148Z,997.24
2018-03-11T10:23:57.985Z,997.24
2018-03-11T10:25:06.821Z,997.25
2018-03-11T10:26:15.809Z,997.24
2018-03-11T10:27:24.645Z,997.28
2018-03-11T10:28:33.484Z,997.23
2018-03-11T10:29:42.320Z,997.24
2018-03-11T10:30:51.156Z,997.22
2018-03-11T10:32:00.095Z,997.21
2018-03-11T10:33:08.954Z,997.15
2018-03-11T10:34:17.772Z,997.11
2018-03-11T10:35:26.609Z,997.06
2018-03-11T10:36:35.727Z,997
2018-03-11T10:37:44.751Z,996.97
2018-03-11T10:38:53.850Z,996.96
2018-03-11T10:40:02.687Z,996.96
2018-03-11T10:41:11.527Z,996.88
2018-03-11T10:42:20.640Z,996.76
2018-03-11T10:43:29.632Z,996.7
2018-03-11T10:44:38.466Z,996.69
2018-03-11T10:45:47.304Z,996.7
2018-03-11T10:46:56.144Z,996.71
2018-03-11T10:48:04.983Z,996.71
2018-03-11T10:49:14.142Z,996.68
2018-03-11T10:50:22.954Z,996.59
2018-03-11T10:51:31.794Z,996.62
2018-03-11T10:52:40.634Z,996.54
2018-03-11T10:53:49.473Z,996.54
2018-03-11T10:54:58.612Z,996.53
2018-03-11T10:56:07.451Z,996.46
2018-03-11T10:57:16.291Z,996.42
2018-03-11T10:58:25.129Z,996.42
2018-03-11T10:59:33.965Z,996.43
2018-03-11T11:00:42.811Z,996.39
2018-03-11T11:01:51.653Z,996.48
2018-03-11T11:03:00.492Z,996.48
2018-03-11T11:04:09.330Z,996.53
2018-03-11T11:05:18.169Z,996.44
2018-03-11T11:06:27.110Z,996.39
2018-03-11T11:07:35.950Z,996.36
2018-03-11T11:08:44.788Z,996.39
2018-03-11T11:09:53.625Z,996.39
2018-03-11T11:11:02.465Z,996.38
2018-03-11T11:12:11.602Z,996.38
2018-03-11T11:13:20.717Z,996.33
2018-03-11T11:14:29.559Z,996.41
2018-03-11T11:15:38.394Z,996.42
2018-03-11T11:16:47.231Z,996.37
2018-03-11T11:17:56.073Z,996.38
2018-03-11T11:19:04.912Z,996.35
2018-03-11T11:20:13.757Z,996.39
2018-03-11T11:21:22.868Z,996.45
2018-03-11T11:22:31.705Z,996.44
2018-03-11T11:23:40.795Z,996.52
2018-03-11T11:24:49.633Z,996.53
2018-03-11T11:25:58.750Z,996.53
2018-03-11T11:27:07.586Z,996.48
2018-03-11T11:28:16.427Z,996.44
2018-03-11T11:29:25.646Z,996.44
2018-03-11T11:30:34.486Z,996.47
2018-03-11T11:31:43.321Z,996.44
2018-03-11T11:32:52.162Z,996.42
2018-03-11T11:34:01.279Z,996.45
2018-03-11T11:35:10.265Z,996.44
2018-03-11T11:36:19.105Z,996.46
2018-03-11T11:37:27.946Z,996.43
2018-03-11T11:38:36.781Z,996.48
2018-03-11T11:39:45.624Z,996.47
2018-03-11T11:40:54.884Z,996.45
2018-03-11T11:42:03.724Z,996.42
2018-03-11T11:43:12.869Z,996.4
2018-03-11T11:44:21.673Z,996.38
2018-03-11T11:45:30.510Z,996.4
2018-03-11T11:46:39.498Z,996.45
2018-03-11T11:47:48.334Z,996.51
2018-03-11T11:48:57.172Z,996.47
2018-03-11T11:50:06.012Z,996.4
2018-03-11T11:51:14.848Z,996.36
2018-03-11T11:52:23.842Z,996.29
2018-03-11T11:53:32.953Z,996.28
2018-03-11T11:54:41.788Z,996.23
2018-03-11T11:55:50.630Z,996.23
2018-03-11T11:56:59.468Z,996.17
2018-03-11T11:58:08.368Z,996.17
2018-03-11T11:59:17.196Z,996.08
2018-03-11T12:00:26.310Z,996.05
2018-03-11T12:01:35.147Z,996.07
2018-03-11T12:02:43.984Z,996.04
2018-03-11T12:03:52.924Z,996.01
2018-03-11T12:05:01.762Z,995.97
2018-03-11T12:06:10.603Z,995.94
2018-03-11T12:07:19.440Z,995.94
2018-03-11T12:08:28.284Z,995.94
2018-03-11T12:09:37.700Z,995.92
2018-03-11T12:10:46.812Z,995.91
2018-03-11T12:11:55.650Z,995.92
2018-03-11T12:13:04.486Z,995.92
2018-03-11T12:14:13.326Z,995.93
2018-03-11T12:15:22.445Z,995.9
2018-03-11T12:16:31.282Z,995.92
2018-03-11T12:17:40.121Z,995.98
2018-03-11T12:18:48.959Z,995.93
2018-03-11T12:19:57.804Z,995.92
2018-03-11T12:21:06.943Z,995.91
2018-03-11T12:22:15.780Z,995.93
2018-03-11T12:23:24.617Z,995.89
2018-03-11T12:24:33.456Z,995.84
2018-03-11T12:25:42.295Z,995.8
2018-03-11T12:26:51.284Z,995.76
2018-03-11T12:28:00.120Z,995.81
2018-03-11T12:29:08.959Z,995.82
2018-03-11T12:30:17.800Z,995.76
2018-03-11T12:31:26.916Z,995.68
2018-03-11T12:32:35.854Z,995.67
2018-03-11T12:33:44.690Z,995.63
2018-03-11T12:34:53.532Z,995.55
2018-03-11T12:36:02.366Z,995.59
2018-03-11T12:37:11.494Z,995.57
2018-03-11T12:38:20.433Z,995.51
2018-03-11T12:39:29.270Z,995.48
2018-03-11T12:40:38.107Z,995.44
2018-03-11T12:41:46.944Z,995.42
2018-03-11T12:42:55.791Z,995.36
2018-03-11T12:44:04.670Z,995.39
2018-03-11T12:45:13.536Z,995.34
2018-03-11T12:46:22.649Z,995.35
2018-03-11T12:47:31.488Z,995.33
2018-03-11T12:48:40.329Z,995.31
2018-03-11T12:49:49.267Z,995.3
2018-03-11T12:50:58.379Z,995.28
2018-03-11T12:52:07.217Z,995.21
2018-03-11T12:53:16.056Z,995.23
2018-03-11T12:54:24.894Z,995.22
2018-03-11T12:55:33.883Z,995.29
2018-03-11T12:56:42.717Z,995.27
2018-03-11T12:57:51.553Z,995.21
2018-03-11T12:59:00.670Z,995.17
2018-03-11T13:00:09.505Z,995.13
2018-03-11T13:01:18.491Z,995.11
2018-03-11T13:02:27.602Z,995.09
2018-03-11T13:03:36.438Z,995.12
2018-03-11T13:04:45.278Z,995.11
2018-03-11T13:05:54.114Z,995.07
2018-03-11T13:07:02.953Z,995.09
2018-03-11T13:08:11.791Z,995.09
2018-03-11T13:09:20.627Z,995.07
2018-03-11T13:10:30.024Z,995.05
2018-03-11T13:11:39.142Z,995.04
2018-03-11T13:12:47.981Z,994.98
2018-03-11T13:13:57.100Z,994.97
2018-03-11T13:15:05.938Z,994.99
2018-03-11T13:16:14.776Z,995.02
2018-03-11T13:17:23.611Z,994.97
2018-03-11T13:18:32.460Z,994.95
2018-03-11T13:19:41.297Z,994.94
2018-03-11T13:20:50.135Z,994.93
2018-03-11T13:21:58.976Z,994.96
2018-03-11T13:23:07.817Z,994.93
2018-03-11T13:24:16.655Z,994.98
2018-03-11T13:25:25.496Z,994.89
2018-03-11T13:26:34.340Z,994.95
2018-03-11T13:27:43.179Z,994.97
2018-03-11T13:28:52.017Z,994.98
2018-03-11T13:30:00.858Z,995.01
2018-03-11T13:31:09.701Z,994.95
2018-03-11T13:32:18.539Z,994.91
2018-03-11T13:33:27.527Z,994.87
2018-03-11T13:34:36.365Z,994.9
2018-03-11T13:35:45.201Z,994.87
2018-03-11T13:36:54.039Z,994.87
2018-03-11T13:38:02.884Z,994.84
2018-03-11T13:39:11.725Z,994.89
2018-03-11T13:40:20.566Z,994.86
2018-03-11T13:41:29.433Z,994.84
2018-03-11T13:42:38.271Z,994.83
2018-03-11T13:43:47.209Z,994.85
2018-03-11T13:44:56.049Z,994.81
2018-03-11T13:46:04.889Z,994.78
2018-03-11T13:47:13.730Z,994.78
2018-03-11T13:48:22.571Z,994.79
2018-03-11T13:49:31.609Z,994.7
2018-03-11T13:50:40.448Z,994.73
2018-03-11T13:51:49.291Z,994.65
2018-03-11T13:52:58.127Z,994.68
2018-03-11T13:54:06.970Z,994.71
2018-03-11T13:55:15.910Z,994.67
2018-03-11T13:56:24.751Z,994.61
2018-03-11T13:57:33.590Z,994.56
2018-03-11T13:58:42.433Z,994.55
2018-03-11T13:59:51.613Z,994.56
2018-03-11T14:01:00.824Z,994.52
2018-03-11T14:02:10.719Z,994.48
2018-03-11T14:03:19.558Z,994.5
2018-03-11T14:04:28.693Z,994.49
2018-03-11T14:05:37.517Z,994.5
2018-03-11T14:06:46.615Z,994.48
2018-03-11T14:07:55.453Z,994.46
2018-03-11T14:09:04.293Z,994.45
2018-03-11T14:10:13.139Z,994.48
2018-03-11T14:11:21.977Z,994.41
2018-03-11T14:12:31.243Z,994.42
2018-03-11T14:13:40.081Z,994.41
2018-03-11T14:14:48.917Z,994.38
2018-03-11T14:15:57.755Z,994.36
2018-03-11T14:17:06.603Z,994.34
2018-03-11T14:18:15.436Z,994.31
2018-03-11T14:19:24.274Z,994.35